Hendricks, West Virginia
Current Conditions -  °F | °C
As of 4:51 AM on Saturday 22 Nov 2014 (Local Time) from KEKN Reporting Station
Clear Clear  
Wind Chill: 13°   Ceiling: Unl
Heat Index: 13°   Visibility: 9mi
Dew Point: 10°   Wind: 0mph
Humidity: 88%   Direction: NA
Pressure: 30.4"   Gusts: NA
Location:  39.08°N, 79.63°W
Report Text: KEKN 220951Z AUTO 00000KT 9SM CLR M11/M12 A3040 RMK AO2 SLP331 I1000 T11061122 TSNO
Loading
Personal Weather Stations






























Interactive Weather Map New forecast layout! Learn more

10-Day Weather Forecast

Advertisements
Track Severe Weather on mobile